Flight Track Log - Related Links

Times and Time Zones

All times are in EDT time to prevent confusion due to time zone crossing. See the DAL3676 flight status page for this flight to view local times or setup timezone preferences in your user account.

Time Position Orientation Groundspeed Altitude Reporting Facility
EDT Latitude Longitude Course Direction KTS MPH feet Rate Location/Type
Thu 07:02:00 PM 35.0539 -86.7479 North  Level FlightAware Approximate
Thu 07:02:57 PM 34.7494 -86.7150 North 294 338 9,000  Level Memphis Center
Thu 07:03:00 PM 35.1590 -86.7374 North  Level FlightAware Approximate
Thu 07:03:57 PM 34.8328 -86.7114 North 294 338 10,800  Level Memphis Center
Thu 07:04:00 PM 35.2641 -86.7269 North  Level FlightAware Approximate
Thu 07:04:56 PM 34.9328 -86.7094 North 321 369 11,700  Level Memphis Center
Thu 07:05:00 PM 35.3691 -86.7167 North  Level FlightAware Approximate
Thu 07:05:57 PM 35.0453 -86.7072 North 362 417 13,300  Level Memphis Center
Thu 07:06:00 PM 35.4746 -86.7167 North  Level FlightAware Approximate
Thu 07:06:57 PM 35.1517 -86.7078 360° North 382 440 15,300  Level Memphis Center
Thu 07:07:00 PM 35.5799 -86.7128 North  Level FlightAware Approximate
Thu 07:07:57 PM 35.2644 -86.7053 North 390 449 16,800  Level Memphis Center
Thu 07:08:00 PM 35.6851 -86.7040 North  Level FlightAware Approximate
Thu 07:08:57 PM 35.3728 -86.7006 North 390 449 18,100  Level Memphis Center
Thu 07:09:57 PM 35.4792 -86.7008 360° North 390 449 19,600 1,350 Climbing Memphis Center
Thu 07:10:57 PM 35.5872 -86.6961 North 385 443 20,800 1,664 Climbing Memphis Center
Thu 07:11:56 PM 35.7042 -86.6961 360° North 385 443 22,900 1,700 Climbing Memphis Center
Thu 07:12:57 PM 35.8083 -86.6914 North 380 437 24,200 843 Climbing Memphis Center
Thu 07:13:57 PM 35.9144 -86.6842 North 380 437 24,600 504 Climbing Memphis Center
Thu 07:14:56 PM 36.0267 -86.6742 North 393 452 25,200 550 Climbing Memphis Center
Thu 07:15:57 PM 36.1453 -86.6636 North 406 467 25,700 496 Climbing Memphis Center
Thu 07:16:57 PM 36.2617 -86.6531 North 419 482 26,200 500 Climbing Memphis Center
Thu 07:17:57 PM 36.3839 -86.6294 North 433 498 26,700 400 Climbing Memphis Center
Thu 07:18:57 PM 36.5039 -86.5956 13° North 439 505 27,000 150 Climbing Memphis Center
Thu 07:19:57 PM 36.6256 -86.5589 14° North 444 511 27,000  Level Memphis Center
Thu 07:20:57 PM 36.7497 -86.5219 13° North 450 518 27,000  Level Memphis Center
Thu 07:21:57 PM 36.8775 -86.4847 13° North 456 525 27,000  Level Memphis Center
Thu 07:24:06 PM 37.1536 -86.4022 13° North 476 548 27,000  Level Indianapolis Center
Thu 07:25:08 PM 37.2833 -86.3617 14° North 476 548 27,000  Level Indianapolis Center
Thu 07:26:10 PM 37.4139 -86.3217 14° North 476 548 27,000  Level Indianapolis Center
Thu 07:27:11 PM 37.5442 -86.2831 13° North 478 550 27,000  Level Indianapolis Center
Thu 07:28:13 PM 37.6742 -86.2433 14° North 477 549 27,000  Level Indianapolis Center
Thu 07:29:15 PM 37.8053 -86.2022 14° North 479 551 27,000  Level Indianapolis Center
Thu 07:30:17 PM 37.9386 -86.1633 13° North 480 552 27,000  Level Indianapolis Center
Thu 07:31:18 PM 38.0683 -86.1250 13° North 479 551 27,000  Level Indianapolis Center
Thu 07:32:20 PM 38.1978 -86.0844 14° North 479 551 27,000  Level Indianapolis Center
Thu 07:33:22 PM 38.3531 -86.0361 14° North 478 550 27,000  Level Indianapolis Center
Thu 07:34:24 PM 38.4833 -85.9950 14° North 481 554 27,000  Level Indianapolis Center
Thu 07:35:25 PM 38.6136 -85.9558 13° North 480 552 27,000  Level Indianapolis Center
Thu 07:36:27 PM 38.7422 -85.9144 14° North 478 550 27,000  Level Indianapolis Center
Thu 07:37:29 PM 38.8811 -85.8703 14° North 482 555 27,000  Level Indianapolis Center
Thu 07:38:31 PM 39.0117 -85.8306 13° North 484 557 27,000  Level Indianapolis Center
Thu 07:39:32 PM 39.1406 -85.7903 14° North 481 554 27,000  Level Indianapolis Center
Thu 07:40:34 PM 39.2742 -85.7953 358° North 482 555 27,000  Level Indianapolis Center
Thu 07:41:36 PM 39.4058 -85.8033 357° North 478 550 27,000  Level Indianapolis Center
Thu 07:42:37 PM 39.5639 -85.8094 358° North 479 551 27,000  Level Indianapolis Center
Thu 07:43:39 PM 39.6956 -85.8175 357° North 480 552 27,000  Level Indianapolis Center
Thu 07:44:41 PM 39.8275 -85.8247 358° North 481 554 27,000  Level Indianapolis Center
Thu 07:45:42 PM 39.9589 -85.8156 North 484 557 27,000  Level Indianapolis Center
Thu 07:46:44 PM 40.0811 -85.7453 24° Northeast 485 558 27,000  Level Indianapolis Center
Thu 07:47:41 PM 40.2025 -85.6714 25° Northeast 482 555 27,000  Level Chicago Center
Thu 07:48:43 PM 40.3222 -85.5983 25° Northeast 480 552 27,000 -48 Level Chicago Center
Thu 07:49:45 PM 40.4394 -85.5261 25° Northeast 470 541 26,900 -629 Descending Chicago Center
Thu 07:50:47 PM 40.5778 -85.4403 25° Northeast 462 532 25,700 -1,355 Descending Chicago Center
Thu 07:51:49 PM 40.6847 -85.3742 25° Northeast 461 531 24,100 -1,065 Descending Chicago Center
Thu 07:52:51 PM 40.7956 -85.3000 27° Northeast 454 522 23,500 -1,210 Descending Chicago Center
Thu 07:53:53 PM 40.9289 -85.2178 25° Northeast 445 512 21,600 -1,210 Descending Chicago Center
Thu 07:54:55 PM 41.0256 -85.1336 33° Northeast 427 491 21,000 -290 Descending Chicago Center
Thu 07:55:57 PM 41.1167 -85.0392 38° Northeast 421 484 21,000  Level Chicago Center
Thu 07:57:00 PM 41.2061 -84.9442 39° Northeast 417 480 21,000  Level Chicago Center
Thu 07:58:01 PM 41.2961 -84.8461 39° Northeast 419 482 21,000 -195 Level Chicago Center
Thu 07:59:03 PM 41.3961 -84.7203 43° Northeast 418 481 20,600 -968 Descending Chicago Center
Thu 08:00:05 PM 41.4703 -84.6039 50° Northeast 415 478 19,000 -1,429 Descending Chicago Center
Thu 08:00:48 PM 41.5186 -84.5300 49° Northeast 409 471 18,100 -1,282 Descending Cleveland Center
Thu 08:01:48 PM 41.5914 -84.4150 50° Northeast 409 471 16,800 -1,400 Descending Cleveland Center
Thu 08:02:48 PM 41.6619 -84.3022 50° Northeast 403 464 15,300 -1,660 Descending Cleveland Center
Thu 08:03:22 PM 41.7081 -84.2272 51° Northeast 390 449 14,200 -1,600 Descending Cleveland Center
Thu 08:03:48 PM 41.7278 -84.1947 51° Northeast 392 451 13,700 -1,500 Descending Cleveland Center
Thu 08:04:30 PM 41.7850 -84.1061 49° Northeast 376 433 12,500 -1,500 Descending Cleveland Center
Thu 08:04:48 PM 41.7958 -84.0872 52° Northeast 385 443 12,200 -492 Descending Cleveland Center
Thu 08:05:31 PM 41.8547 -84.0039 46° Northeast 376 433 12,000 -200 Descending Cleveland Center
Thu 08:05:48 PM 41.8656 -83.9850 52° Northeast 375 432 12,000  Level Cleveland Center
Thu 08:06:38 PM 41.9414 -83.8942 42° Northeast 387 445 12,000  Level Cleveland Center
Thu 08:07:39 PM 42.0194 -83.7892 45° Northeast 391 450 12,000  Level Cleveland Center
Thu 08:08:40 PM 42.0975 -83.6811 46° Northeast 394 453 12,000  Level Cleveland Center
Thu 08:09:41 PM 42.1667 -83.5892 45° Northeast 301 346 12,000 -492 Level Cleveland Center
Thu 08:10:42 PM 42.2267 -83.5247 38° Northeast 268 308 11,000 -1,241 Descending Cleveland Center
Thu 08:11:37 PM 42.2861 -83.4853 26° Northeast 255 293 9,600 -1,565 Descending Cleveland Center
Thu 08:12:37 PM 42.3472 -83.4517 22° Northeast 246 283 8,000 -1,736 Descending Cleveland Center
Thu 08:13:38 PM 42.4106 -83.4208 20° North 242 278 6,100 -1,623 Descending Cleveland Center
Thu 08:14:39 PM 42.4761 -83.3817 24° Northeast 236 272 4,700 -1,024 Descending Cleveland Center
Thu 08:15:41 PM 42.4672 -83.3192 101° East 165 190 4,000 -419 Descending Cleveland Center
Thu 08:16:48 PM 42.4242 -83.2919 155° Southeast 168 193 3,800 -283 Descending Cleveland Center
Thu 08:17:48 PM 42.3761 -83.2956 183° South 173 199 3,400 -466 Descending Cleveland Center
Thu 08:18:44 PM 42.3364 -83.2994 184° South 165 190 2,900 -536 Descending Cleveland Center

Login

Don't have an account? Register now (free) for customized features, flight alerts, and more!